sensor_id;sensor_type;location;lat;lon;timestamp;P1;durP1;ratioP1;P2;durP2;ratioP2
70216;SDS011;65567;55.684;37.570;2023-08-07T00:00:45;7.43;;;4.10;;
70216;SDS011;65567;55.684;37.570;2023-08-07T00:03:11;8.85;;;4.30;;
70216;SDS011;65567;55.684;37.570;2023-08-07T00:05:37;8.32;;;4.07;;
70216;SDS011;65567;55.684;37.570;2023-08-07T00:08:03;6.80;;;4.30;;
70216;SDS011;65567;55.684;37.570;2023-08-07T00:10:33;10.23;;;3.85;;
70216;SDS011;65567;55.684;37.570;2023-08-07T00:12:59;10.80;;;4.60;;
70216;SDS011;65567;55.684;37.570;2023-08-07T00:15:25;6.60;;;4.05;;
70216;SDS011;65567;55.684;37.570;2023-08-07T00:17:51;6.18;;;3.78;;
70216;SDS011;65567;55.684;37.570;2023-08-07T00:20:17;7.25;;;4.28;;
70216;SDS011;65567;55.684;37.570;2023-08-07T00:22:43;9.15;;;4.53;;
70216;SDS011;65567;55.684;37.570;2023-08-07T00:25:10;7.63;;;4.50;;
70216;SDS011;65567;55.684;37.570;2023-08-07T00:27:36;10.43;;;4.43;;
70216;SDS011;65567;55.684;37.570;2023-08-07T00:30:02;9.80;;;3.72;;
70216;SDS011;65567;55.684;37.570;2023-08-07T00:32:28;10.00;;;4.55;;
70216;SDS011;65567;55.684;37.570;2023-08-07T00:34:54;8.35;;;4.28;;
70216;SDS011;65567;55.684;37.570;2023-08-07T00:37:20;10.07;;;4.30;;
70216;SDS011;65567;55.684;37.570;2023-08-07T00:39:46;8.77;;;4.18;;
70216;SDS011;65567;55.684;37.570;2023-08-07T00:42:11;8.48;;;4.18;;
70216;SDS011;65567;55.684;37.570;2023-08-07T00:44:37;9.90;;;4.25;;
70216;SDS011;65567;55.684;37.570;2023-08-07T00:47:03;6.30;;;4.80;;
70216;SDS011;65567;55.684;37.570;2023-08-07T00:49:29;7.57;;;3.92;;
70216;SDS011;65567;55.684;37.570;2023-08-07T00:51:55;9.93;;;4.95;;
70216;SDS011;65567;55.684;37.570;2023-08-07T00:54:21;7.57;;;4.40;;
70216;SDS011;65567;55.684;37.570;2023-08-07T00:56:47;7.18;;;4.30;;
70216;SDS011;65567;55.684;37.570;2023-08-07T00:59:13;6.28;;;4.20;;
70216;SDS011;65567;55.684;37.570;2023-08-07T01:01:40;6.82;;;4.68;;
70216;SDS011;65567;55.684;37.570;2023-08-07T01:04:06;10.77;;;4.38;;
70216;SDS011;65567;55.684;37.570;2023-08-07T01:06:35;9.07;;;4.95;;
70216;SDS011;65567;55.684;37.570;2023-08-07T01:09:01;8.15;;;4.63;;
70216;SDS011;65567;55.684;37.570;2023-08-07T01:11:39;9.20;;;4.53;;
70216;SDS011;65567;55.684;37.570;2023-08-07T01:17:17;7.40;;;4.30;;
70216;SDS011;65567;55.684;37.570;2023-08-07T01:19:46;5.45;;;4.40;;
70216;SDS011;65567;55.684;37.570;2023-08-07T01:22:15;11.25;;;4.82;;
70216;SDS011;65567;55.684;37.570;2023-08-07T01:24:43;9.93;;;4.75;;
70216;SDS011;65567;55.684;37.570;2023-08-07T01:35:08;10.60;;;4.32;;
70216;SDS011;65567;55.684;37.570;2023-08-07T01:37:39;7.70;;;4.88;;
70216;SDS011;65567;55.684;37.570;2023-08-07T01:40:07;8.13;;;4.32;;
70216;SDS011;65567;55.684;37.570;2023-08-07T01:42:35;5.75;;;4.57;;
70216;SDS011;65567;55.684;37.570;2023-08-07T01:45:02;6.43;;;4.70;;
70216;SDS011;65567;55.684;37.570;2023-08-07T01:47:32;6.38;;;4.30;;
70216;SDS011;65567;55.684;37.570;2023-08-07T01:49:58;8.07;;;4.55;;
70216;SDS011;65567;55.684;37.570;2023-08-07T01:52:25;6.47;;;4.55;;
70216;SDS011;65567;55.684;37.570;2023-08-07T01:54:51;6.60;;;4.25;;
70216;SDS011;65567;55.684;37.570;2023-08-07T01:57:17;7.32;;;4.78;;
70216;SDS011;65567;55.684;37.570;2023-08-07T01:59:42;8.07;;;4.55;;
70216;SDS011;65567;55.684;37.570;2023-08-07T02:02:09;8.02;;;4.32;;
70216;SDS011;65567;55.684;37.570;2023-08-07T02:04:35;7.32;;;4.95;;
70216;SDS011;65567;55.684;37.570;2023-08-07T02:07:02;7.78;;;4.40;;
70216;SDS011;65567;55.684;37.570;2023-08-07T02:09:28;9.30;;;4.55;;
70216;SDS011;65567;55.684;37.570;2023-08-07T02:11:57;6.15;;;3.88;;
70216;SDS011;65567;55.684;37.570;2023-08-07T02:14:23;6.55;;;4.00;;
70216;SDS011;65567;55.684;37.570;2023-08-07T02:16:50;5.90;;;4.18;;
70216;SDS011;65567;55.684;37.570;2023-08-07T02:19:15;5.68;;;4.53;;
70216;SDS011;65567;55.684;37.570;2023-08-07T02:21:41;12.15;;;4.20;;
70216;SDS011;65567;55.684;37.570;2023-08-07T02:24:07;6.15;;;3.85;;
70216;SDS011;65567;55.684;37.570;2023-08-07T02:26:33;10.30;;;4.68;;
70216;SDS011;65567;55.684;37.570;2023-08-07T02:28:58;7.10;;;4.32;;
70216;SDS011;65567;55.684;37.570;2023-08-07T02:31:24;7.13;;;4.18;;
70216;SDS011;65567;55.684;37.570;2023-08-07T02:33:50;10.77;;;4.00;;
70216;SDS011;65567;55.684;37.570;2023-08-07T02:36:16;6.60;;;4.20;;
70216;SDS011;65567;55.684;37.570;2023-08-07T02:38:41;7.97;;;4.00;;
70216;SDS011;65567;55.684;37.570;2023-08-07T02:41:07;10.40;;;4.28;;
70216;SDS011;65567;55.684;37.570;2023-08-07T02:43:33;9.85;;;3.97;;
70216;SDS011;65567;55.684;37.570;2023-08-07T02:45:59;5.93;;;3.72;;
70216;SDS011;65567;55.684;37.570;2023-08-07T02:48:25;6.82;;;3.85;;
70216;SDS011;65567;55.684;37.570;2023-08-07T02:50:50;5.70;;;3.90;;
70216;SDS011;65567;55.684;37.570;2023-08-07T02:53:16;5.65;;;3.30;;
70216;SDS011;65567;55.684;37.570;2023-08-07T02:55:43;7.63;;;3.97;;
70216;SDS011;65567;55.684;37.570;2023-08-07T02:58:09;5.70;;;4.10;;
70216;SDS011;65567;55.684;37.570;2023-08-07T03:00:35;7.03;;;3.70;;
70216;SDS011;65567;55.684;37.570;2023-08-07T03:03:01;8.93;;;3.70;;
70216;SDS011;65567;55.684;37.570;2023-08-07T03:05:28;6.45;;;3.17;;
70216;SDS011;65567;55.684;37.570;2023-08-07T03:07:55;5.47;;;3.90;;
70216;SDS011;65567;55.684;37.570;2023-08-07T03:10:21;6.95;;;3.72;;
70216;SDS011;65567;55.684;37.570;2023-08-07T03:12:47;5.00;;;3.33;;
70216;SDS011;65567;55.684;37.570;2023-08-07T03:15:12;6.93;;;3.92;;
70216;SDS011;65567;55.684;37.570;2023-08-07T03:17:38;6.68;;;3.63;;
70216;SDS011;65567;55.684;37.570;2023-08-07T03:20:04;8.02;;;3.40;;
70216;SDS011;65567;55.684;37.570;2023-08-07T03:22:31;8.15;;;3.72;;
70216;SDS011;65567;55.684;37.570;2023-08-07T03:24:57;5.47;;;3.20;;
70216;SDS011;65567;55.684;37.570;2023-08-07T03:27:23;5.72;;;3.25;;
70216;SDS011;65567;55.684;37.570;2023-08-07T03:29:49;5.40;;;3.42;;
70216;SDS011;65567;55.684;37.570;2023-08-07T03:32:15;6.32;;;3.35;;
70216;SDS011;65567;55.684;37.570;2023-08-07T03:34:41;5.65;;;3.35;;
70216;SDS011;65567;55.684;37.570;2023-08-07T03:37:07;6.85;;;3.20;;
70216;SDS011;65567;55.684;37.570;2023-08-07T03:39:33;4.90;;;3.47;;
70216;SDS011;65567;55.684;37.570;2023-08-07T03:41:59;5.97;;;3.10;;
70216;SDS011;65567;55.684;37.570;2023-08-07T03:44:25;5.55;;;3.00;;
70216;SDS011;65567;55.684;37.570;2023-08-07T03:46:50;6.25;;;2.63;;
70216;SDS011;65567;55.684;37.570;2023-08-07T03:49:17;7.85;;;3.13;;
70216;SDS011;65567;55.684;37.570;2023-08-07T03:51:43;6.68;;;3.75;;
70216;SDS011;65567;55.684;37.570;2023-08-07T03:54:11;4.05;;;2.78;;
70216;SDS011;65567;55.684;37.570;2023-08-07T03:56:37;6.00;;;2.97;;
70216;SDS011;65567;55.684;37.570;2023-08-07T03:59:03;5.32;;;3.08;;
70216;SDS011;65567;55.684;37.570;2023-08-07T04:01:29;9.57;;;2.95;;
70216;SDS011;65567;55.684;37.570;2023-08-07T04:03:55;5.50;;;3.17;;
70216;SDS011;65567;55.684;37.570;2023-08-07T04:06:21;5.53;;;3.17;;
70216;SDS011;65567;55.684;37.570;2023-08-07T04:08:47;4.93;;;2.80;;
70216;SDS011;65567;55.684;37.570;2023-08-07T04:11:13;5.90;;;3.25;;
70216;SDS011;65567;55.684;37.570;2023-08-07T04:13:39;8.75;;;2.80;;
70216;SDS011;65567;55.684;37.570;2023-08-07T04:16:05;5.40;;;2.50;;
70216;SDS011;65567;55.684;37.570;2023-08-07T04:18:31;7.97;;;3.22;;
70216;SDS011;65567;55.684;37.570;2023-08-07T04:20:58;7.20;;;2.88;;
70216;SDS011;65567;55.684;37.570;2023-08-07T04:23:24;5.47;;;2.80;;
70216;SDS011;65567;55.684;37.570;2023-08-07T04:25:51;6.15;;;2.80;;
70216;SDS011;65567;55.684;37.570;2023-08-07T04:28:18;6.28;;;3.20;;
70216;SDS011;65567;55.684;37.570;2023-08-07T04:30:44;7.65;;;2.70;;
70216;SDS011;65567;55.684;37.570;2023-08-07T04:33:10;8.05;;;3.42;;
70216;SDS011;65567;55.684;37.570;2023-08-07T04:35:36;6.53;;;3.03;;
70216;SDS011;65567;55.684;37.570;2023-08-07T04:38:02;3.50;;;2.80;;
70216;SDS011;65567;55.684;37.570;2023-08-07T04:40:28;8.48;;;3.22;;
70216;SDS011;65567;55.684;37.570;2023-08-07T04:42:55;4.40;;;2.35;;
70216;SDS011;65567;55.684;37.570;2023-08-07T04:45:21;5.72;;;2.60;;
70216;SDS011;65567;55.684;37.570;2023-08-07T04:47:47;4.72;;;2.35;;
70216;SDS011;65567;55.684;37.570;2023-08-07T04:50:13;6.32;;;4.85;;
70216;SDS011;65567;55.684;37.570;2023-08-07T04:52:39;7.03;;;2.75;;
70216;SDS011;65567;55.684;37.570;2023-08-07T04:55:05;6.50;;;2.67;;
70216;SDS011;65567;55.684;37.570;2023-08-07T04:57:31;5.95;;;2.42;;
70216;SDS011;65567;55.684;37.570;2023-08-07T04:59:57;5.80;;;2.25;;
70216;SDS011;65567;55.684;37.570;2023-08-07T05:02:23;4.35;;;2.58;;
70216;SDS011;65567;55.684;37.570;2023-08-07T05:04:49;6.05;;;3.17;;
70216;SDS011;65567;55.684;37.570;2023-08-07T05:07:15;5.85;;;2.55;;
70216;SDS011;65567;55.684;37.570;2023-08-07T05:09:41;7.72;;;2.55;;
70216;SDS011;65567;55.684;37.570;2023-08-07T05:12:07;5.97;;;2.38;;
70216;SDS011;65567;55.684;37.570;2023-08-07T05:14:33;3.85;;;2.17;;
70216;SDS011;65567;55.684;37.570;2023-08-07T05:17:00;9.07;;;3.38;;
70216;SDS011;65567;55.684;37.570;2023-08-07T05:19:26;8.00;;;2.60;;
70216;SDS011;65567;55.684;37.570;2023-08-07T05:21:52;4.18;;;2.70;;
70216;SDS011;65567;55.684;37.570;2023-08-07T05:24:18;6.72;;;6.00;;
70216;SDS011;65567;55.684;37.570;2023-08-07T05:26:44;5.38;;;2.50;;
70216;SDS011;65567;55.684;37.570;2023-08-07T05:29:10;5.70;;;2.13;;
70216;SDS011;65567;55.684;37.570;2023-08-07T05:31:36;7.65;;;2.80;;
70216;SDS011;65567;55.684;37.570;2023-08-07T05:34:02;4.93;;;2.50;;
70216;SDS011;65567;55.684;37.570;2023-08-07T05:36:28;4.65;;;1.98;;
70216;SDS011;65567;55.684;37.570;2023-08-07T05:38:56;4.38;;;2.08;;
70216;SDS011;65567;55.684;37.570;2023-08-07T05:41:22;4.13;;;2.42;;
70216;SDS011;65567;55.684;37.570;2023-08-07T05:43:48;3.33;;;2.20;;
70216;SDS011;65567;55.684;37.570;2023-08-07T05:46:20;4.43;;;2.35;;
70216;SDS011;65567;55.684;37.570;2023-08-07T05:48:46;6.22;;;2.45;;
70216;SDS011;65567;55.684;37.570;2023-08-07T05:51:11;7.25;;;2.70;;
70216;SDS011;65567;55.684;37.570;2023-08-07T05:53:37;6.03;;;2.05;;
70216;SDS011;65567;55.684;37.570;2023-08-07T05:56:03;6.57;;;2.30;;
70216;SDS011;65567;55.684;37.570;2023-08-07T05:58:29;7.55;;;3.55;;
70216;SDS011;65567;55.684;37.570;2023-08-07T06:00:55;9.45;;;2.30;;
70216;SDS011;65567;55.684;37.570;2023-08-07T06:03:21;5.03;;;2.17;;
70216;SDS011;65567;55.684;37.570;2023-08-07T06:05:47;6.93;;;2.00;;
70216;SDS011;65567;55.684;37.570;2023-08-07T06:08:13;8.90;;;2.38;;
70216;SDS011;65567;55.684;37.570;2023-08-07T06:10:38;5.82;;;2.13;;
70216;SDS011;65567;55.684;37.570;2023-08-07T06:13:04;7.13;;;2.20;;
70216;SDS011;65567;55.684;37.570;2023-08-07T06:15:31;4.97;;;2.38;;
70216;SDS011;65567;55.684;37.570;2023-08-07T06:17:57;4.85;;;2.20;;
70216;SDS011;65567;55.684;37.570;2023-08-07T06:20:23;11.40;;;2.40;;
70216;SDS011;65567;55.684;37.570;2023-08-07T06:22:49;5.00;;;2.20;;
70216;SDS011;65567;55.684;37.570;2023-08-07T06:25:15;4.40;;;2.00;;
70216;SDS011;65567;55.684;37.570;2023-08-07T06:27:41;3.30;;;2.08;;
70216;SDS011;65567;55.684;37.570;2023-08-07T06:30:07;5.75;;;1.95;;
70216;SDS011;65567;55.684;37.570;2023-08-07T06:32:33;7.10;;;2.20;;
70216;SDS011;65567;55.684;37.570;2023-08-07T06:34:59;4.40;;;1.90;;
70216;SDS011;65567;55.684;37.570;2023-08-07T06:37:26;4.45;;;1.80;;
70216;SDS011;65567;55.684;37.570;2023-08-07T06:39:54;7.43;;;1.90;;
70216;SDS011;65567;55.684;37.570;2023-08-07T06:42:19;4.50;;;2.17;;
70216;SDS011;65567;55.684;37.570;2023-08-07T06:44:45;6.28;;;2.08;;
70216;SDS011;65567;55.684;37.570;2023-08-07T06:47:12;8.10;;;2.38;;
70216;SDS011;65567;55.684;37.570;2023-08-07T06:49:37;4.43;;;2.00;;
70216;SDS011;65567;55.684;37.570;2023-08-07T06:52:03;5.95;;;2.60;;
70216;SDS011;65567;55.684;37.570;2023-08-07T06:54:30;5.03;;;1.73;;
70216;SDS011;65567;55.684;37.570;2023-08-07T06:56:55;4.93;;;1.80;;
70216;SDS011;65567;55.684;37.570;2023-08-07T06:59:21;6.20;;;1.80;;
70216;SDS011;65567;55.684;37.570;2023-08-07T07:01:47;6.75;;;1.80;;
70216;SDS011;65567;55.684;37.570;2023-08-07T07:04:13;11.18;;;2.08;;
70216;SDS011;65567;55.684;37.570;2023-08-07T07:06:39;6.03;;;2.15;;
70216;SDS011;65567;55.684;37.570;2023-08-07T07:09:05;7.30;;;2.00;;
70216;SDS011;65567;55.684;37.570;2023-08-07T07:11:34;7.50;;;2.15;;
70216;SDS011;65567;55.684;37.570;2023-08-07T07:14:00;7.15;;;2.45;;
70216;SDS011;65567;55.684;37.570;2023-08-07T07:16:26;6.85;;;2.20;;
70216;SDS011;65567;55.684;37.570;2023-08-07T07:18:54;7.63;;;2.35;;
70216;SDS011;65567;55.684;37.570;2023-08-07T07:21:21;3.47;;;1.90;;
70216;SDS011;65567;55.684;37.570;2023-08-07T07:23:47;7.03;;;2.00;;
70216;SDS011;65567;55.684;37.570;2023-08-07T07:26:15;3.08;;;1.33;;
70216;SDS011;65567;55.684;37.570;2023-08-07T07:28:41;9.48;;;1.73;;
70216;SDS011;65567;55.684;37.570;2023-08-07T07:31:07;9.02;;;1.60;;
70216;SDS011;65567;55.684;37.570;2023-08-07T07:33:36;11.15;;;2.10;;
70216;SDS011;65567;55.684;37.570;2023-08-07T07:36:04;4.15;;;1.35;;
70216;SDS011;65567;55.684;37.570;2023-08-07T07:38:31;4.18;;;2.10;;
70216;SDS011;65567;55.684;37.570;2023-08-07T07:40:57;5.13;;;1.48;;
70216;SDS011;65567;55.684;37.570;2023-08-07T07:43:23;6.50;;;1.50;;
70216;SDS011;65567;55.684;37.570;2023-08-07T07:45:49;5.25;;;1.25;;
70216;SDS011;65567;55.684;37.570;2023-08-07T07:48:15;6.00;;;1.45;;
70216;SDS011;65567;55.684;37.570;2023-08-07T07:50:41;7.53;;;1.70;;
70216;SDS011;65567;55.684;37.570;2023-08-07T07:53:07;11.50;;;1.92;;
70216;SDS011;65567;55.684;37.570;2023-08-07T07:55:33;10.32;;;1.58;;
70216;SDS011;65567;55.684;37.570;2023-08-07T07:57:59;6.10;;;1.65;;
70216;SDS011;65567;55.684;37.570;2023-08-07T08:00:25;9.43;;;2.08;;
70216;SDS011;65567;55.684;37.570;2023-08-07T08:02:52;8.98;;;1.83;;
70216;SDS011;65567;55.684;37.570;2023-08-07T08:05:18;7.55;;;1.80;;
70216;SDS011;65567;55.684;37.570;2023-08-07T08:07:47;4.57;;;1.33;;
70216;SDS011;65567;55.684;37.570;2023-08-07T08:10:13;5.95;;;1.42;;
70216;SDS011;65567;55.684;37.570;2023-08-07T08:12:39;5.15;;;1.20;;
70216;SDS011;65567;55.684;37.570;2023-08-07T08:15:05;10.48;;;1.55;;
70216;SDS011;65567;55.684;37.570;2023-08-07T08:17:31;8.52;;;1.50;;
70216;SDS011;65567;55.684;37.570;2023-08-07T08:19:57;4.38;;;1.60;;
70216;SDS011;65567;55.684;37.570;2023-08-07T08:22:23;3.78;;;1.20;;
70216;SDS011;65567;55.684;37.570;2023-08-07T08:24:49;9.77;;;1.75;;
70216;SDS011;65567;55.684;37.570;2023-08-07T08:27:15;3.08;;;1.30;;
70216;SDS011;65567;55.684;37.570;2023-08-07T08:29:43;6.97;;;1.55;;
70216;SDS011;65567;55.684;37.570;2023-08-07T08:32:11;6.68;;;1.75;;
70216;SDS011;65567;55.684;37.570;2023-08-07T08:34:37;5.00;;;1.60;;
70216;SDS011;65567;55.684;37.570;2023-08-07T08:37:04;5.38;;;1.50;;
70216;SDS011;65567;55.684;37.570;2023-08-07T08:39:33;3.78;;;1.27;;
70216;SDS011;65567;55.684;37.570;2023-08-07T08:41:59;3.58;;;1.52;;
70216;SDS011;65567;55.684;37.570;2023-08-07T08:44:25;4.05;;;1.35;;
70216;SDS011;65567;55.684;37.570;2023-08-07T08:46:55;7.07;;;1.27;;
70216;SDS011;65567;55.684;37.570;2023-08-07T08:49:28;3.22;;;1.42;;
70216;SDS011;65567;55.684;37.570;2023-08-07T08:51:57;5.93;;;1.40;;
70216;SDS011;65567;55.684;37.570;2023-08-07T08:54:24;5.80;;;1.65;;
70216;SDS011;65567;55.684;37.570;2023-08-07T08:56:51;4.28;;;1.40;;
70216;SDS011;65567;55.684;37.570;2023-08-07T08:59:19;3.90;;;1.50;;
70216;SDS011;65567;55.684;37.570;2023-08-07T09:01:46;7.88;;;1.45;;
70216;SDS011;65567;55.684;37.570;2023-08-07T09:04:16;4.65;;;1.30;;
70216;SDS011;65567;55.684;37.570;2023-08-07T09:06:43;3.17;;;1.50;;
70216;SDS011;65567;55.684;37.570;2023-08-07T09:09:10;4.10;;;1.38;;
70216;SDS011;65567;55.684;37.570;2023-08-07T09:11:39;3.33;;;1.50;;
70216;SDS011;65567;55.684;37.570;2023-08-07T09:14:07;2.90;;;1.52;;
70216;SDS011;65567;55.684;37.570;2023-08-07T09:16:34;3.97;;;1.27;;
70216;SDS011;65567;55.684;37.570;2023-08-07T09:19:01;8.05;;;1.60;;
70216;SDS011;65567;55.684;37.570;2023-08-07T09:21:28;4.40;;;1.50;;
70216;SDS011;65567;55.684;37.570;2023-08-07T09:23:55;9.52;;;1.83;;
70216;SDS011;65567;55.684;37.570;2023-08-07T09:26:22;3.97;;;1.23;;
70216;SDS011;65567;55.684;37.570;2023-08-07T09:31:20;3.28;;;1.17;;
70216;SDS011;65567;55.684;37.570;2023-08-07T09:33:47;5.30;;;1.40;;
70216;SDS011;65567;55.684;37.570;2023-08-07T09:36:14;4.40;;;1.30;;
70216;SDS011;65567;55.684;37.570;2023-08-07T09:38:40;6.40;;;1.58;;
70216;SDS011;65567;55.684;37.570;2023-08-07T09:41:06;3.67;;;1.42;;
70216;SDS011;65567;55.684;37.570;2023-08-07T09:43:35;4.80;;;1.38;;
70216;SDS011;65567;55.684;37.570;2023-08-07T09:46:02;14.57;;;1.73;;
70216;SDS011;65567;55.684;37.570;2023-08-07T09:48:29;4.70;;;1.30;;
70216;SDS011;65567;55.684;37.570;2023-08-07T09:51:00;3.25;;;1.58;;
70216;SDS011;65567;55.684;37.570;2023-08-07T09:53:30;4.70;;;1.40;;
70216;SDS011;65567;55.684;37.570;2023-08-07T09:55:56;3.28;;;1.02;;
70216;SDS011;65567;55.684;37.570;2023-08-07T09:58:23;4.78;;;1.63;;
70216;SDS011;65567;55.684;37.570;2023-08-07T10:00:50;4.38;;;1.48;;
70216;SDS011;65567;55.684;37.570;2023-08-07T10:03:21;4.53;;;1.42;;
70216;SDS011;65567;55.684;37.570;2023-08-07T10:05:48;4.07;;;1.30;;
70216;SDS011;65567;55.684;37.570;2023-08-07T10:08:14;4.72;;;1.35;;
70216;SDS011;65567;55.684;37.570;2023-08-07T10:10:45;6.78;;;1.90;;
70216;SDS011;65567;55.684;37.570;2023-08-07T10:13:12;6.43;;;1.30;;
70216;SDS011;65567;55.684;37.570;2023-08-07T10:15:39;2.13;;;1.27;;
70216;SDS011;65567;55.684;37.570;2023-08-07T10:18:07;9.02;;;2.10;;
70216;SDS011;65567;55.684;37.570;2023-08-07T10:20:36;5.05;;;1.60;;
70216;SDS011;65567;55.684;37.570;2023-08-07T10:23:07;5.72;;;1.52;;
70216;SDS011;65567;55.684;37.570;2023-08-07T10:25:34;3.58;;;1.60;;
70216;SDS011;65567;55.684;37.570;2023-08-07T10:28:05;7.03;;;1.50;;
70216;SDS011;65567;55.684;37.570;2023-08-07T10:30:34;3.67;;;1.40;;
70216;SDS011;65567;55.684;37.570;2023-08-07T10:33:02;4.63;;;1.42;;
70216;SDS011;65567;55.684;37.570;2023-08-07T10:35:32;2.85;;;1.30;;
70216;SDS011;65567;55.684;37.570;2023-08-07T10:38:05;6.07;;;1.60;;
70216;SDS011;65567;55.684;37.570;2023-08-07T10:40:33;2.78;;;1.27;;
70216;SDS011;65567;55.684;37.570;2023-08-07T10:45:34;2.60;;;1.50;;
70216;SDS011;65567;55.684;37.570;2023-08-07T10:48:10;4.78;;;1.60;;
70216;SDS011;65567;55.684;37.570;2023-08-07T10:53:40;6.03;;;1.52;;
70216;SDS011;65567;55.684;37.570;2023-08-07T10:56:11;2.90;;;1.48;;
70216;SDS011;65567;55.684;37.570;2023-08-07T10:58:49;6.38;;;1.63;;
70216;SDS011;65567;55.684;37.570;2023-08-07T11:03:48;3.75;;;1.83;;
70216;SDS011;65567;55.684;37.570;2023-08-07T11:06:16;4.63;;;1.58;;
70216;SDS011;65567;55.684;37.570;2023-08-07T11:08:43;8.52;;;1.60;;
70216;SDS011;65567;55.684;37.570;2023-08-07T11:11:09;3.30;;;1.90;;
70216;SDS011;65567;55.684;37.570;2023-08-07T11:13:35;3.67;;;1.70;;
70216;SDS011;65567;55.684;37.570;2023-08-07T11:16:04;4.38;;;1.80;;
70216;SDS011;65567;55.684;37.570;2023-08-07T11:20:57;5.25;;;2.17;;
70216;SDS011;65567;55.684;37.570;2023-08-07T11:23:24;4.45;;;2.03;;
70216;SDS011;65567;55.684;37.570;2023-08-07T11:25:52;4.28;;;1.98;;
70216;SDS011;65567;55.684;37.570;2023-08-07T11:28:19;3.97;;;1.70;;
70216;SDS011;65567;55.684;37.570;2023-08-07T11:30:48;2.97;;;1.70;;
70216;SDS011;65567;55.684;37.570;2023-08-07T11:33:19;4.93;;;1.67;;
70216;SDS011;65567;55.684;37.570;2023-08-07T11:35:46;8.00;;;1.80;;
70216;SDS011;65567;55.684;37.570;2023-08-07T11:38:16;3.53;;;1.60;;
70216;SDS011;65567;55.684;37.570;2023-08-07T11:40:57;2.45;;;1.70;;
70216;SDS011;65567;55.684;37.570;2023-08-07T11:43:26;9.27;;;2.28;;
70216;SDS011;65567;55.684;37.570;2023-08-07T11:45:52;5.80;;;2.13;;
70216;SDS011;65567;55.684;37.570;2023-08-07T11:48:19;2.20;;;1.73;;
70216;SDS011;65567;55.684;37.570;2023-08-07T11:50:48;6.30;;;1.80;;
70216;SDS011;65567;55.684;37.570;2023-08-07T11:53:14;6.57;;;2.00;;
70216;SDS011;65567;55.684;37.570;2023-08-07T11:55:46;4.85;;;2.20;;
70216;SDS011;65567;55.684;37.570;2023-08-07T11:58:20;4.88;;;1.80;;
70216;SDS011;65567;55.684;37.570;2023-08-07T12:00:47;5.70;;;2.20;;
70216;SDS011;65567;55.684;37.570;2023-08-07T12:03:26;3.55;;;1.65;;
70216;SDS011;65567;55.684;37.570;2023-08-07T12:05:57;4.40;;;2.30;;
70216;SDS011;65567;55.684;37.570;2023-08-07T12:08:34;4.07;;;1.90;;
70216;SDS011;65567;55.684;37.570;2023-08-07T12:11:02;3.08;;;1.80;;
70216;SDS011;65567;55.684;37.570;2023-08-07T12:13:32;7.68;;;2.22;;
70216;SDS011;65567;55.684;37.570;2023-08-07T12:16:00;6.70;;;1.88;;
70216;SDS011;65567;55.684;37.570;2023-08-07T12:18:27;5.57;;;2.25;;
70216;SDS011;65567;55.684;37.570;2023-08-07T12:20:59;5.25;;;2.42;;
70216;SDS011;65567;55.684;37.570;2023-08-07T12:23:27;3.03;;;1.90;;
70216;SDS011;65567;55.684;37.570;2023-08-07T12:25:53;2.47;;;1.73;;
70216;SDS011;65567;55.684;37.570;2023-08-07T12:28:19;5.72;;;2.58;;
70216;SDS011;65567;55.684;37.570;2023-08-07T12:30:46;6.47;;;2.00;;
70216;SDS011;65567;55.684;37.570;2023-08-07T12:33:13;2.75;;;1.88;;
70216;SDS011;65567;55.684;37.570;2023-08-07T12:35:40;4.32;;;1.95;;
70216;SDS011;65567;55.684;37.570;2023-08-07T12:38:07;6.10;;;2.08;;
70216;SDS011;65567;55.684;37.570;2023-08-07T12:40:34;5.78;;;2.17;;
70216;SDS011;65567;55.684;37.570;2023-08-07T12:43:04;5.07;;;2.35;;
70216;SDS011;65567;55.684;37.570;2023-08-07T12:45:30;4.20;;;2.00;;
70216;SDS011;65567;55.684;37.570;2023-08-07T12:47:56;4.45;;;1.90;;
70216;SDS011;65567;55.684;37.570;2023-08-07T12:50:22;6.03;;;1.90;;
70216;SDS011;65567;55.684;37.570;2023-08-07T12:52:48;8.90;;;2.58;;
70216;SDS011;65567;55.684;37.570;2023-08-07T12:55:13;4.70;;;2.22;;
70216;SDS011;65567;55.684;37.570;2023-08-07T12:57:41;3.53;;;1.90;;
70216;SDS011;65567;55.684;37.570;2023-08-07T13:00:10;2.90;;;1.75;;
70216;SDS011;65567;55.684;37.570;2023-08-07T13:02:42;4.32;;;1.90;;
70216;SDS011;65567;55.684;37.570;2023-08-07T13:05:10;4.00;;;2.10;;
70216;SDS011;65567;55.684;37.570;2023-08-07T13:07:37;3.58;;;1.90;;
70216;SDS011;65567;55.684;37.570;2023-08-07T13:10:04;6.53;;;2.35;;
70216;SDS011;65567;55.684;37.570;2023-08-07T13:12:34;4.47;;;1.90;;
70216;SDS011;65567;55.684;37.570;2023-08-07T13:15:05;7.75;;;2.20;;
70216;SDS011;65567;55.684;37.570;2023-08-07T13:17:38;3.72;;;2.03;;
70216;SDS011;65567;55.684;37.570;2023-08-07T13:20:04;4.88;;;1.88;;
70216;SDS011;65567;55.684;37.570;2023-08-07T13:22:36;3.83;;;1.73;;
70216;SDS011;65567;55.684;37.570;2023-08-07T13:25:04;4.97;;;2.28;;
70216;SDS011;65567;55.684;37.570;2023-08-07T13:27:33;6.35;;;2.33;;
70216;SDS011;65567;55.684;37.570;2023-08-07T13:29:59;4.50;;;1.90;;
70216;SDS011;65567;55.684;37.570;2023-08-07T13:32:26;6.32;;;2.45;;
70216;SDS011;65567;55.684;37.570;2023-08-07T13:34:52;7.07;;;2.15;;
70216;SDS011;65567;55.684;37.570;2023-08-07T13:37:18;4.78;;;2.17;;
70216;SDS011;65567;55.684;37.570;2023-08-07T13:39:44;6.97;;;2.33;;
70216;SDS011;65567;55.684;37.570;2023-08-07T13:42:09;7.15;;;1.90;;
70216;SDS011;65567;55.684;37.570;2023-08-07T13:44:36;3.78;;;1.38;;
70216;SDS011;65567;55.684;37.570;2023-08-07T13:47:03;8.43;;;2.30;;
70216;SDS011;65567;55.684;37.570;2023-08-07T13:49:30;5.47;;;2.05;;
70216;SDS011;65567;55.684;37.570;2023-08-07T13:51:56;5.53;;;2.10;;
70216;SDS011;65567;55.684;37.570;2023-08-07T13:54:22;4.88;;;2.03;;
70216;SDS011;65567;55.684;37.570;2023-08-07T13:56:48;5.30;;;2.28;;
70216;SDS011;65567;55.684;37.570;2023-08-07T13:59:15;4.15;;;1.80;;
70216;SDS011;65567;55.684;37.570;2023-08-07T14:01:41;3.47;;;1.80;;
70216;SDS011;65567;55.684;37.570;2023-08-07T14:04:07;6.63;;;2.00;;
70216;SDS011;65567;55.684;37.570;2023-08-07T14:06:33;7.32;;;2.10;;
70216;SDS011;65567;55.684;37.570;2023-08-07T14:08:58;5.03;;;2.17;;
70216;SDS011;65567;55.684;37.570;2023-08-07T14:11:24;3.22;;;1.90;;
70216;SDS011;65567;55.684;37.570;2023-08-07T14:13:55;5.05;;;1.80;;
70216;SDS011;65567;55.684;37.570;2023-08-07T14:16:25;5.28;;;2.17;;
70216;SDS011;65567;55.684;37.570;2023-08-07T14:18:51;4.65;;;2.08;;
70216;SDS011;65567;55.684;37.570;2023-08-07T14:21:20;4.13;;;1.90;;
70216;SDS011;65567;55.684;37.570;2023-08-07T14:23:46;2.85;;;2.03;;
70216;SDS011;65567;55.684;37.570;2023-08-07T14:26:13;6.45;;;2.00;;
70216;SDS011;65567;55.684;37.570;2023-08-07T14:28:39;3.75;;;1.95;;
70216;SDS011;65567;55.684;37.570;2023-08-07T14:31:06;6.97;;;2.05;;
70216;SDS011;65567;55.684;37.570;2023-08-07T14:33:33;5.30;;;2.25;;
70216;SDS011;65567;55.684;37.570;2023-08-07T14:36:02;3.88;;;2.13;;
70216;SDS011;65567;55.684;37.570;2023-08-07T14:38:28;5.53;;;2.13;;
70216;SDS011;65567;55.684;37.570;2023-08-07T14:40:55;4.10;;;1.70;;
70216;SDS011;65567;55.684;37.570;2023-08-07T14:43:22;2.85;;;1.30;;
70216;SDS011;65567;55.684;37.570;2023-08-07T14:45:48;4.90;;;2.20;;
70216;SDS011;65567;55.684;37.570;2023-08-07T14:48:16;2.72;;;1.83;;
70216;SDS011;65567;55.684;37.570;2023-08-07T14:53:10;4.80;;;1.70;;
70216;SDS011;65567;55.684;37.570;2023-08-07T14:55:37;7.68;;;2.20;;
70216;SDS011;65567;55.684;37.570;2023-08-07T14:58:03;5.82;;;1.85;;